Buckville, Arkansas
Current Conditions -  °F | °C
As of 10:53 AM on Saturday 20 Dec 2014 (Local Time) from KHOT Reporting Station
Overcast Overcast  
Wind Chill: 44°   Ceiling: 2200
Heat Index: 44°   Visibility: 8mi
Dew Point: 38°   Wind: 3mph
Humidity: 79%   Direction: NA
Pressure: 30.28"   Gusts: NA
Location:  34.7091°N, 93.2208°W
Report Text: KHOT 201653Z AUTO VRB03KT 8SM OVC022 07/03 A3028 RMK AO2 SLP253 T00670033
Loading
Personal Weather Stations






























Interactive Weather Map New forecast layout! Learn more

10-Day Weather Forecast

Advertisements
Track Severe Weather on mobile